createdAt,value
2023-02-16T00:01:22.261Z,32.72
2023-02-16T00:03:51.397Z,35.65
2023-02-16T00:06:19.578Z,34.17
2023-02-16T00:08:49.452Z,30.02
2023-02-16T00:11:39.637Z,33.03
2023-02-16T00:14:11.102Z,32.38
2023-02-16T00:16:39.580Z,39.05
2023-02-16T00:19:18.045Z,31.50
2023-02-16T00:21:45.990Z,32.70
2023-02-16T00:24:13.931Z,33.42
2023-02-16T00:26:44.221Z,31.15
2023-02-16T00:29:16.674Z,31.98
2023-02-16T00:31:44.736Z,25.60
2023-02-16T00:34:31.722Z,30.77
2023-02-16T00:37:02.752Z,32.83
2023-02-16T00:39:31.322Z,29.75
2023-02-16T00:42:05.440Z,30.98
2023-02-16T00:44:37.977Z,28.20
2023-02-16T00:47:18.845Z,26.40
2023-02-16T00:49:46.859Z,31.08
2023-02-16T00:52:32.385Z,28.85
2023-02-16T00:55:01.293Z,27.67
2023-02-16T00:57:35.236Z,31.95
2023-02-16T01:00:09.434Z,33.30
2023-02-16T01:02:37.384Z,33.83
2023-02-16T01:05:05.756Z,31.23
2023-02-16T01:07:51.330Z,32.05
2023-02-16T01:10:38.118Z,34.35
2023-02-16T01:13:07.447Z,30.25
2023-02-16T01:15:36.825Z,32.55
2023-02-16T01:18:05.031Z,29.60
2023-02-16T01:20:33.077Z,30.45
2023-02-16T01:23:01.042Z,32.65
2023-02-16T01:25:29.323Z,34.67
2023-02-16T01:27:57.241Z,35.35
2023-02-16T01:30:27.601Z,34.35
2023-02-16T01:32:55.963Z,30.85
2023-02-16T01:35:28.140Z,33.65
2023-02-16T01:37:56.039Z,33.60
2023-02-16T01:40:36.925Z,36.75
2023-02-16T01:43:12.255Z,38.45
2023-02-16T01:45:44.317Z,33.20
2023-02-16T01:48:22.053Z,31.25
2023-02-16T01:50:55.578Z,39.22
2023-02-16T01:53:30.444Z,41.63
2023-02-16T01:56:04.546Z,36.00
2023-02-16T01:58:37.908Z,37.00
2023-02-16T02:01:53.690Z,35.47
2023-02-16T02:04:47.090Z,32.58
2023-02-16T02:07:23.090Z,33.95
2023-02-16T02:09:58.227Z,28.75
2023-02-16T02:12:33.858Z,33.50
2023-02-16T02:15:02.392Z,31.25
2023-02-16T02:17:32.490Z,33.72
2023-02-16T02:20:09.269Z,35.83
2023-02-16T02:23:31.060Z,30.48
2023-02-16T02:26:32.616Z,31.55
2023-02-16T02:29:14.356Z,29.02
2023-02-16T02:31:53.047Z,29.98
2023-02-16T02:34:30.019Z,24.67
2023-02-16T02:37:09.429Z,28.33
2023-02-16T02:39:47.961Z,28.13
2023-02-16T02:42:24.549Z,27.30
2023-02-16T02:45:00.153Z,27.95
2023-02-16T02:47:39.615Z,29.27
2023-02-16T02:50:35.544Z,30.65
2023-02-16T02:53:09.515Z,26.83
2023-02-16T02:56:00.836Z,29.60
2023-02-16T02:58:52.588Z,32.55
2023-02-16T03:01:23.543Z,28.85
2023-02-16T03:03:57.112Z,29.10
2023-02-16T03:06:28.567Z,27.90
2023-02-16T03:09:01.427Z,29.33
2023-02-16T03:11:48.364Z,32.67
2023-02-16T03:14:19.579Z,30.98
2023-02-16T03:17:11.280Z,29.92
2023-02-16T03:19:59.700Z,28.85
2023-02-16T03:22:45.407Z,22.50
2023-02-16T03:25:31.290Z,29.30
2023-02-16T03:28:18.906Z,28.85
2023-02-16T03:30:48.845Z,22.73
2023-02-16T03:33:18.726Z,26.98
2023-02-16T03:35:47.279Z,27.92
2023-02-16T03:38:15.218Z,29.10
2023-02-16T03:40:45.325Z,29.88
2023-02-16T03:43:13.294Z,30.00
2023-02-16T03:45:44.283Z,28.42
2023-02-16T03:48:12.824Z,28.27
2023-02-16T03:50:42.235Z,24.63
2023-02-16T03:53:10.185Z,24.90
2023-02-16T03:55:40.791Z,26.80
2023-02-16T03:58:10.505Z,27.50
2023-02-16T04:00:39.119Z,26.45
2023-02-16T04:03:08.829Z,23.88
2023-02-16T04:05:36.981Z,27.30
2023-02-16T04:08:06.885Z,24.55
2023-02-16T04:10:34.760Z,25.08
2023-02-16T04:13:02.135Z,26.05
2023-02-16T04:15:32.021Z,26.30
2023-02-16T04:17:59.934Z,26.70
2023-02-16T04:20:29.906Z,24.65
2023-02-16T04:22:58.086Z,28.10
2023-02-16T04:25:27.487Z,24.42
2023-02-16T04:27:55.953Z,27.10
2023-02-16T04:30:26.806Z,24.42
2023-02-16T04:32:54.750Z,28.50
2023-02-16T04:35:23.254Z,23.67
2023-02-16T04:37:51.231Z,23.15
2023-02-16T04:40:19.671Z,24.90
2023-02-16T04:42:48.879Z,31.58
2023-02-16T04:45:16.773Z,29.40
2023-02-16T04:47:44.770Z,28.65
2023-02-16T04:50:13.529Z,23.23
2023-02-16T04:52:41.471Z,22.35
2023-02-16T04:55:10.794Z,23.52
2023-02-16T04:57:39.050Z,24.70
2023-02-16T05:00:11.692Z,23.98
2023-02-16T05:02:39.667Z,28.05
2023-02-16T05:05:08.643Z,28.35
2023-02-16T05:07:37.201Z,21.27
2023-02-16T05:10:06.048Z,23.85
2023-02-16T05:12:51.315Z,27.02
2023-02-16T05:15:20.590Z,25.27
2023-02-16T05:17:48.481Z,24.88
2023-02-16T05:20:16.373Z,25.83
2023-02-16T05:22:45.657Z,24.23
2023-02-16T05:25:13.865Z,28.52
2023-02-16T05:27:41.759Z,26.27
2023-02-16T05:30:10.582Z,25.42
2023-02-16T05:32:39.829Z,25.77
2023-02-16T05:35:07.869Z,20.83
2023-02-16T05:37:35.805Z,27.25
2023-02-16T05:40:03.782Z,27.83
2023-02-16T05:42:31.754Z,23.80
2023-02-16T05:44:59.651Z,24.50
2023-02-16T05:47:27.509Z,23.77
2023-02-16T05:49:56.765Z,28.90
2023-02-16T05:52:24.792Z,29.83
2023-02-16T05:54:52.678Z,29.02
2023-02-16T05:57:20.539Z,31.10
2023-02-16T05:59:48.390Z,26.25
2023-02-16T06:02:16.547Z,28.95
2023-02-16T06:04:44.413Z,27.33
2023-02-16T06:07:14.895Z,22.17
2023-02-16T06:09:42.955Z,33.17
2023-02-16T06:12:10.877Z,23.88
2023-02-16T06:14:38.746Z,25.05
2023-02-16T06:17:06.622Z,28.42
2023-02-16T06:19:34.505Z,24.73
2023-02-16T06:22:02.498Z,24.60
2023-02-16T06:24:31.855Z,27.00
2023-02-16T06:27:00.143Z,26.90
2023-02-16T06:29:28.062Z,22.80
2023-02-16T06:31:56.191Z,22.73
2023-02-16T06:34:24.194Z,25.80
2023-02-16T06:36:52.040Z,23.05
2023-02-16T06:39:20.049Z,24.45
2023-02-16T06:41:49.370Z,27.00
2023-02-16T06:44:18.343Z,25.25
2023-02-16T06:46:48.582Z,29.65
2023-02-16T06:49:19.068Z,24.98
2023-02-16T06:51:47.467Z,26.17
2023-02-16T06:54:16.268Z,29.10
2023-02-16T06:56:44.154Z,28.38
2023-02-16T06:59:13.730Z,25.42
2023-02-16T07:01:44.080Z,31.77
2023-02-16T07:04:12.800Z,28.50
2023-02-16T07:06:41.249Z,26.98
2023-02-16T07:09:10.642Z,32.95
2023-02-16T07:11:39.449Z,24.17
2023-02-16T07:14:07.339Z,28.15
2023-02-16T07:16:36.708Z,24.98
2023-02-16T07:19:05.597Z,27.80
2023-02-16T07:21:33.532Z,30.92
2023-02-16T07:24:01.421Z,24.40
2023-02-16T07:26:29.338Z,30.60
2023-02-16T07:28:57.200Z,30.50
2023-02-16T07:31:26.593Z,28.30
2023-02-16T07:33:55.853Z,32.08
2023-02-16T07:36:23.901Z,24.27
2023-02-16T07:38:51.769Z,28.55
2023-02-16T07:41:19.659Z,29.55
2023-02-16T07:43:48.206Z,32.75
2023-02-16T07:46:16.078Z,30.63
2023-02-16T07:48:43.934Z,30.15
2023-02-16T07:51:13.189Z,32.40
2023-02-16T07:53:41.076Z,31.33
2023-02-16T07:56:08.867Z,33.78
2023-02-16T07:58:36.822Z,30.25
2023-02-16T08:01:10.003Z,32.83
2023-02-16T08:03:38.026Z,29.77
2023-02-16T08:06:07.575Z,37.83
2023-02-16T08:08:37.369Z,30.15
2023-02-16T08:11:10.441Z,32.88
2023-02-16T08:16:09.536Z,31.13
2023-02-16T08:18:37.474Z,32.72
2023-02-16T08:21:13.894Z,32.35
2023-02-16T08:23:47.530Z,32.47
2023-02-16T08:26:18.258Z,32.80
2023-02-16T08:28:47.342Z,35.78
2023-02-16T08:31:17.294Z,32.28
2023-02-16T08:33:45.788Z,36.78
2023-02-16T08:36:21.034Z,32.83
2023-02-16T08:38:51.172Z,30.25
2023-02-16T08:41:19.516Z,38.45
2023-02-16T08:43:47.887Z,32.97
2023-02-16T08:46:16.954Z,32.53
2023-02-16T08:48:46.129Z,36.90
2023-02-16T08:51:15.540Z,36.42
2023-02-16T08:53:44.071Z,36.50
2023-02-16T08:56:14.377Z,36.10
2023-02-16T08:58:44.630Z,36.22
2023-02-16T09:01:13.079Z,39.60
2023-02-16T09:03:42.911Z,34.55
2023-02-16T09:06:13.256Z,35.60
2023-02-16T09:08:41.990Z,32.42
2023-02-16T09:11:14.745Z,33.95
2023-02-16T09:13:43.713Z,37.83
2023-02-16T09:16:14.164Z,36.55
2023-02-16T09:18:42.796Z,35.58
2023-02-16T09:21:14.985Z,40.65
2023-02-16T09:23:47.426Z,34.15
2023-02-16T09:26:17.552Z,34.97
2023-02-16T09:28:47.216Z,35.55
2023-02-16T09:31:20.091Z,35.65
2023-02-16T09:33:48.133Z,40.15
2023-02-16T09:36:16.318Z,33.25
2023-02-16T09:38:44.258Z,35.55
2023-02-16T09:41:27.017Z,39.50
2023-02-16T09:43:59.257Z,37.33
2023-02-16T09:46:29.688Z,34.90
2023-02-16T09:48:57.928Z,33.67
2023-02-16T09:51:34.751Z,35.58
2023-02-16T09:54:15.343Z,38.63
2023-02-16T09:56:50.325Z,37.25
2023-02-16T09:59:33.164Z,30.77
2023-02-16T10:02:16.295Z,33.33
2023-02-16T10:04:48.837Z,38.40
2023-02-16T10:07:29.658Z,41.00
2023-02-16T10:09:58.490Z,39.05
2023-02-16T10:12:34.550Z,37.95
2023-02-16T10:15:08.196Z,39.10
2023-02-16T10:17:46.952Z,39.08
2023-02-16T10:20:17.746Z,35.65
2023-02-16T10:22:51.413Z,36.70
2023-02-16T10:25:23.496Z,35.35
2023-02-16T10:28:12.493Z,37.67
2023-02-16T10:30:44.073Z,34.28
2023-02-16T10:33:17.147Z,35.78
2023-02-16T10:35:48.891Z,37.40
2023-02-16T10:38:27.688Z,41.30
2023-02-16T10:40:59.943Z,33.10
2023-02-16T10:43:41.335Z,41.00
2023-02-16T10:46:12.817Z,37.65
2023-02-16T10:48:40.896Z,35.83
2023-02-16T10:51:12.721Z,36.55
2023-02-16T10:53:44.955Z,44.20
2023-02-16T10:56:40.400Z,42.03
2023-02-16T10:59:17.053Z,41.28
2023-02-16T11:01:46.897Z,39.88
2023-02-16T11:04:37.682Z,36.33
2023-02-16T11:07:08.510Z,37.22
2023-02-16T11:09:37.295Z,40.20
2023-02-16T11:12:16.750Z,38.78
2023-02-16T11:14:51.636Z,41.25
2023-02-16T11:17:22.283Z,38.33
2023-02-16T11:19:54.099Z,35.78
2023-02-16T11:22:34.520Z,36.85
2023-02-16T11:25:22.048Z,40.00
2023-02-16T11:27:55.498Z,37.35
2023-02-16T11:30:32.796Z,37.25
2023-02-16T11:33:04.553Z,40.72
2023-02-16T11:35:41.322Z,39.15
2023-02-16T11:38:27.169Z,37.92
2023-02-16T11:40:56.659Z,38.38
2023-02-16T11:43:29.446Z,42.95
2023-02-16T11:46:05.211Z,39.28
2023-02-16T11:48:34.386Z,54.25
2023-02-16T11:51:04.544Z,40.00
2023-02-16T11:53:33.988Z,144.50
2023-02-16T11:56:22.256Z,172.80
2023-02-16T11:59:13.940Z,54.65
2023-02-16T12:01:57.193Z,40.88
2023-02-16T12:04:38.326Z,38.95
2023-02-16T12:07:16.522Z,38.08
2023-02-16T12:09:54.811Z,42.83
2023-02-16T12:12:34.220Z,41.05
2023-02-16T12:15:07.666Z,32.90
2023-02-16T12:17:49.702Z,39.42
2023-02-16T12:20:33.244Z,41.47
2023-02-16T12:23:15.734Z,42.95
2023-02-16T12:25:51.832Z,35.03
2023-02-16T12:28:29.356Z,36.80
2023-02-16T12:31:06.167Z,37.60
2023-02-16T12:33:47.980Z,37.78
2023-02-16T12:36:46.291Z,37.17
2023-02-16T12:39:21.352Z,38.42
2023-02-16T12:41:58.515Z,35.10
2023-02-16T12:44:33.866Z,35.50
2023-02-16T12:47:04.789Z,35.58
2023-02-16T12:49:53.068Z,43.30
2023-02-16T12:52:32.422Z,34.05
2023-02-16T12:55:19.953Z,35.15
2023-02-16T12:57:55.665Z,35.17
2023-02-16T13:00:39.726Z,37.70
2023-02-16T13:03:21.873Z,37.15
2023-02-16T13:06:08.179Z,33.33
2023-02-16T13:08:43.390Z,35.55
2023-02-16T13:11:18.697Z,36.58
2023-02-16T13:13:48.962Z,38.58
2023-02-16T13:16:29.951Z,36.17
2023-02-16T13:18:58.940Z,40.25
2023-02-16T13:22:12.875Z,32.78
2023-02-16T13:24:55.252Z,35.15
2023-02-16T13:27:33.362Z,33.00
2023-02-16T13:30:17.073Z,36.88
2023-02-16T13:33:09.598Z,36.50
2023-02-16T13:36:07.652Z,35.55
2023-02-16T13:39:10.458Z,33.78
2023-02-16T13:42:06.519Z,33.35
2023-02-16T13:44:38.630Z,35.58
2023-02-16T13:47:13.669Z,32.08
2023-02-16T13:49:43.563Z,39.33
2023-02-16T13:52:12.850Z,36.47
2023-02-16T13:54:43.752Z,32.78
2023-02-16T13:57:13.379Z,32.25
2023-02-16T14:00:05.689Z,34.13
2023-02-16T14:02:57.107Z,33.90
2023-02-16T14:08:27.617Z,30.33
2023-02-16T14:11:14.514Z,33.17
2023-02-16T14:13:49.089Z,32.00
2023-02-16T14:16:35.097Z,32.47
2023-02-16T14:19:17.706Z,33.55
2023-02-16T14:21:48.219Z,30.85
2023-02-16T14:24:31.071Z,37.83
2023-02-16T14:27:02.849Z,33.30
2023-02-16T14:29:34.057Z,35.40
2023-02-16T14:32:07.555Z,29.95
2023-02-16T14:34:42.485Z,32.10
2023-02-16T14:37:30.194Z,33.88
2023-02-16T14:40:08.673Z,31.90
2023-02-16T14:42:38.069Z,28.13
2023-02-16T14:45:22.983Z,34.08
2023-02-16T14:47:59.976Z,33.10
2023-02-16T14:50:40.689Z,31.33
2023-02-16T14:53:57.906Z,33.17
2023-02-16T14:56:38.385Z,30.70
2023-02-16T14:59:18.144Z,29.70
2023-02-16T15:01:47.272Z,33.65
2023-02-16T15:04:29.120Z,28.25
2023-02-16T15:06:59.866Z,31.83
2023-02-16T15:09:31.872Z,27.92
2023-02-16T15:12:21.519Z,32.42
2023-02-16T15:14:54.540Z,25.42
2023-02-16T15:17:30.080Z,31.35
2023-02-16T15:20:04.429Z,34.63
2023-02-16T15:22:33.475Z,26.38
2023-02-16T15:25:03.371Z,36.55
2023-02-16T15:27:32.966Z,31.88
2023-02-16T15:30:22.534Z,28.98
2023-02-16T15:32:53.360Z,28.45
2023-02-16T15:35:27.942Z,27.88
2023-02-16T15:38:10.998Z,25.42
2023-02-16T15:40:40.096Z,25.73
2023-02-16T15:43:23.889Z,26.48
2023-02-16T15:45:54.805Z,29.17
2023-02-16T15:48:30.174Z,30.42
2023-02-16T15:51:03.038Z,32.45
2023-02-16T15:53:38.319Z,28.70
2023-02-16T15:56:21.516Z,27.15
2023-02-16T15:59:05.245Z,24.52
2023-02-16T16:01:36.676Z,24.58
2023-02-16T16:04:09.343Z,22.27
2023-02-16T16:06:40.982Z,29.40
2023-02-16T16:09:18.727Z,26.33
2023-02-16T16:11:46.747Z,28.02
2023-02-16T16:14:15.430Z,30.30
2023-02-16T16:16:46.493Z,25.88
2023-02-16T16:19:20.162Z,28.30
2023-02-16T16:21:51.892Z,31.20
2023-02-16T16:24:34.119Z,28.40
2023-02-16T16:27:05.532Z,31.33
2023-02-16T16:29:38.170Z,33.25
2023-02-16T16:32:18.308Z,25.07
2023-02-16T16:34:46.601Z,25.80
2023-02-16T16:37:27.059Z,30.38
2023-02-16T16:40:05.404Z,29.60
2023-02-16T16:42:34.739Z,25.40
2023-02-16T16:45:07.510Z,31.40
2023-02-16T16:47:40.070Z,32.50
2023-02-16T16:50:30.380Z,32.93
2023-02-16T16:52:58.871Z,34.78
2023-02-16T16:55:33.246Z,31.83
2023-02-16T16:58:03.374Z,24.33
2023-02-16T17:00:35.219Z,25.75
2023-02-16T17:03:06.258Z,33.03
2023-02-16T17:05:34.496Z,28.02
2023-02-16T17:08:02.741Z,32.20
2023-02-16T17:10:30.726Z,29.85
2023-02-16T17:13:00.822Z,29.83
2023-02-16T17:15:34.358Z,29.00
2023-02-16T17:18:03.984Z,30.92
2023-02-16T17:20:32.031Z,32.53
2023-02-16T17:23:04.517Z,32.83
2023-02-16T17:25:35.003Z,30.33
2023-02-16T17:28:03.716Z,27.60
2023-02-16T17:30:31.653Z,26.00
2023-02-16T17:32:59.598Z,29.52
2023-02-16T17:35:29.455Z,30.45
2023-02-16T17:37:57.307Z,33.80
2023-02-16T17:40:26.233Z,39.30
2023-02-16T17:42:54.092Z,29.48
2023-02-16T17:45:23.167Z,29.65
2023-02-16T17:47:53.580Z,32.95
2023-02-16T17:50:22.069Z,28.20
2023-02-16T17:52:57.034Z,28.58
2023-02-16T17:55:24.971Z,28.75
2023-02-16T17:57:53.011Z,34.42
2023-02-16T18:00:22.583Z,29.75
2023-02-16T18:02:50.476Z,30.95
2023-02-16T18:05:18.521Z,34.78
2023-02-16T18:07:46.374Z,30.65
2023-02-16T18:10:33.068Z,32.38
2023-02-16T18:13:00.991Z,35.53
2023-02-16T18:15:29.035Z,29.38
2023-02-16T18:17:57.170Z,33.17
2023-02-16T18:20:26.545Z,33.40
2023-02-16T18:22:54.725Z,30.20
2023-02-16T18:25:24.360Z,33.95
2023-02-16T18:27:52.236Z,31.85
2023-02-16T18:30:20.348Z,28.95
2023-02-16T18:32:48.243Z,28.02
2023-02-16T18:35:17.120Z,27.75
2023-02-16T18:37:45.755Z,31.85
2023-02-16T18:40:16.687Z,33.95
2023-02-16T18:42:45.988Z,25.60
2023-02-16T18:45:13.893Z,30.15
2023-02-16T18:47:42.612Z,31.10
2023-02-16T18:50:11.606Z,29.55
2023-02-16T18:52:42.311Z,27.80
2023-02-16T18:55:10.806Z,32.90
2023-02-16T18:57:38.896Z,34.63
2023-02-16T19:00:09.934Z,28.90
2023-02-16T19:02:37.988Z,33.10
2023-02-16T19:05:06.947Z,33.08
2023-02-16T19:07:35.075Z,33.03
2023-02-16T19:10:03.278Z,30.08
2023-02-16T19:12:31.236Z,34.08
2023-02-16T19:14:59.093Z,30.83
2023-02-16T19:17:28.287Z,33.47
2023-02-16T19:19:56.234Z,27.02
2023-02-16T19:22:24.101Z,29.77
2023-02-16T19:24:52.162Z,28.35
2023-02-16T19:27:20.159Z,29.52
2023-02-16T19:29:48.252Z,31.70
2023-02-16T19:32:16.130Z,27.38
2023-02-16T19:34:45.450Z,32.70
2023-02-16T19:37:13.554Z,28.67
2023-02-16T19:39:41.470Z,28.75
2023-02-16T19:42:09.453Z,30.15
2023-02-16T19:44:37.344Z,31.02
2023-02-16T19:47:05.295Z,30.00
2023-02-16T19:49:33.638Z,29.08
2023-02-16T19:52:04.295Z,28.48
2023-02-16T19:54:34.900Z,27.35
2023-02-16T19:57:03.147Z,29.85
2023-02-16T19:59:31.470Z,29.70
2023-02-16T20:01:59.537Z,26.85
2023-02-16T20:04:27.469Z,27.38
2023-02-16T20:06:56.478Z,29.95
2023-02-16T20:09:26.111Z,32.05
2023-02-16T20:11:53.976Z,28.75
2023-02-16T20:14:21.851Z,31.67
2023-02-16T20:16:51.750Z,27.88
2023-02-16T20:19:20.109Z,27.60
2023-02-16T20:21:48.037Z,30.20
2023-02-16T20:24:16.341Z,33.75
2023-02-16T20:26:49.152Z,31.42
2023-02-16T20:29:17.279Z,29.73
2023-02-16T20:31:49.961Z,30.75
2023-02-16T20:34:19.154Z,28.70
2023-02-16T20:36:47.093Z,27.20
2023-02-16T20:39:15.273Z,31.05
2023-02-16T20:41:43.190Z,26.63
2023-02-16T20:44:12.946Z,25.38
2023-02-16T20:46:41.836Z,26.08
2023-02-16T20:49:10.720Z,24.52
2023-02-16T20:51:39.197Z,28.85
2023-02-16T20:54:07.179Z,34.60
2023-02-16T20:56:35.177Z,28.80
2023-02-16T20:59:03.388Z,26.58
2023-02-16T21:01:37.089Z,27.08
2023-02-16T21:04:06.085Z,29.65
2023-02-16T21:06:34.415Z,27.00
2023-02-16T21:09:02.352Z,27.15
2023-02-16T21:11:30.320Z,24.20
2023-02-16T21:13:58.509Z,24.45
2023-02-16T21:16:27.047Z,30.83
2023-02-16T21:18:56.379Z,29.17
2023-02-16T21:21:25.047Z,25.63
2023-02-16T21:23:55.200Z,30.60
2023-02-16T21:26:26.020Z,31.90
2023-02-16T21:28:54.472Z,32.25
2023-02-16T21:31:25.115Z,27.92
2023-02-16T21:33:53.684Z,27.27
2023-02-16T21:36:25.153Z,29.60
2023-02-16T21:38:53.503Z,35.40
2023-02-16T21:41:25.276Z,31.98
2023-02-16T21:44:00.600Z,30.40
2023-02-16T21:46:30.801Z,29.65
2023-02-16T21:48:58.393Z,27.48
2023-02-16T21:51:29.584Z,36.08
2023-02-16T21:53:58.816Z,29.08
2023-02-16T21:56:38.989Z,30.23
2023-02-16T21:59:09.696Z,24.90
2023-02-16T22:01:40.400Z,27.50
2023-02-16T22:04:08.469Z,31.63
2023-02-16T22:06:40.226Z,27.67
2023-02-16T22:09:10.511Z,31.20
2023-02-16T22:11:39.113Z,29.35
2023-02-16T22:14:07.390Z,28.38
2023-02-16T22:16:37.203Z,33.28
2023-02-16T22:19:07.458Z,30.08
2023-02-16T22:21:38.393Z,27.42
2023-02-16T22:24:07.368Z,31.20
2023-02-16T22:26:36.908Z,30.88
2023-02-16T22:29:06.438Z,33.42
2023-02-16T22:31:35.261Z,33.10
2023-02-16T22:34:05.728Z,29.85
2023-02-16T22:36:34.037Z,33.40
2023-02-16T22:39:03.249Z,32.90
2023-02-16T22:41:31.205Z,32.33
2023-02-16T22:44:00.044Z,31.90
2023-02-16T22:46:29.622Z,31.73
2023-02-16T22:48:59.291Z,34.58
2023-02-16T22:51:29.278Z,32.50
2023-02-16T22:53:58.671Z,31.52
2023-02-16T22:56:29.691Z,31.67
2023-02-16T22:58:58.199Z,32.38
2023-02-16T23:01:27.415Z,31.52
2023-02-16T23:03:57.569Z,30.92
2023-02-16T23:06:27.896Z,34.92
2023-02-16T23:08:58.011Z,33.00
2023-02-16T23:11:28.603Z,39.78
2023-02-16T23:13:56.598Z,31.25
2023-02-16T23:16:26.896Z,39.13
2023-02-16T23:18:56.101Z,30.42
2023-02-16T23:21:25.532Z,31.23
2023-02-16T23:23:54.674Z,39.25
2023-02-16T23:26:24.960Z,32.42
2023-02-16T23:28:56.706Z,38.20
2023-02-16T23:31:24.848Z,34.00
2023-02-16T23:33:53.384Z,33.70
2023-02-16T23:36:21.303Z,38.10
2023-02-16T23:38:49.198Z,33.03
2023-02-16T23:41:17.170Z,33.40
2023-02-16T23:43:45.335Z,37.67
2023-02-16T23:46:14.673Z,33.95
2023-02-16T23:48:42.629Z,37.05
2023-02-16T23:51:12.087Z,34.83
2023-02-16T23:53:40.287Z,30.85
2023-02-16T23:56:12.092Z,38.13
2023-02-16T23:58:42.225Z,34.05
